Time;durP1;ratioP1;P1;durP2;ratioP2;P2;SDS_P1;SDS_P2;PMS_P1;PMS_P2;Temp;Humidity;BMP_temperature;BMP_pressure;BME280_temperature;BME280_humidity;BME280_pressure;Samples;Min_cycle;Max_cycle;Signal;HPM_P1;HPM_P2
2022/12/29 00:01:53;;;;;;;2.10;1.60;;;16.70;62.40;17.70;99593.00;;;;5009622;28;20179;-47
2022/12/29 00:04:19;;;;;;;2.00;1.60;;;16.70;62.30;17.70;99596.00;;;;5007937;28;20744;-47
2022/12/29 00:06:45;;;;;;;1.80;1.70;;;16.60;62.30;17.60;99574.00;;;;5009813;28;20276;-46
2022/12/29 00:09:12;;;;;;;1.73;1.63;;;16.70;62.40;17.60;99580.00;;;;4996373;28;20180;-48
2022/12/29 00:11:38;;;;;;;1.50;1.40;;;16.60;62.40;17.60;99487.00;;;;5011242;28;20232;-48
2022/12/29 00:16:48;;;;;;;1.90;1.70;;;16.60;62.50;17.60;99553.00;;;;5011688;28;20206;-47
2022/12/29 00:36:08;;;;;;;1.60;1.50;;;16.50;62.90;17.50;99540.00;;;;5011052;28;20163;-47
2022/12/29 00:44:05;;;;;;;1.30;1.30;;;16.40;62.80;17.40;99459.00;;;;5010957;28;20210;-46
2022/12/29 00:46:38;;;;;;;1.50;1.40;;;16.40;62.90;17.40;99526.00;;;;5010696;28;20211;-47
2022/12/29 00:51:49;;;;;;;1.50;1.40;;;16.40;62.90;17.40;99436.00;;;;5010405;28;20217;-46
2022/12/29 00:54:15;;;;;;;2.63;1.50;;;16.40;62.90;17.40;99518.00;;;;4993943;28;20294;-46
2022/12/29 00:56:40;;;;;;;1.17;1.17;;;16.40;63.00;17.40;99528.00;;;;4994314;28;20202;-47
2022/12/29 00:59:09;;;;;;;1.20;1.10;;;16.30;63.10;17.40;99529.00;;;;5010549;28;20617;-47
2022/12/29 01:01:35;;;;;;;2.43;1.50;;;16.30;63.20;17.40;99523.00;;;;5010322;28;20182;-46
2022/12/29 01:04:01;;;;;;;1.50;1.40;;;16.30;63.30;17.20;99513.00;;;;5010692;28;20632;-46
2022/12/29 01:06:27;;;;;;;1.40;1.30;;;16.30;63.30;17.40;99424.00;;;;4994146;28;20187;-46
2022/12/29 01:11:38;;;;;;;1.60;1.50;;;16.20;63.30;17.40;99519.00;;;;5010457;28;20206;-46
2022/12/29 01:14:03;;;;;;;1.37;1.27;;;16.20;63.40;17.40;99518.00;;;;5016048;28;20207;-47
2022/12/29 01:16:29;;;;;;;1.10;1.10;;;16.10;63.30;17.40;99457.00;;;;5001224;28;20176;-46
2022/12/29 01:18:55;;;;;;;1.17;1.17;;;16.20;63.70;17.30;99538.00;;;;5000865;28;20223;-47
2022/12/29 01:21:21;;;;;;;1.20;1.20;;;16.20;63.70;17.30;99450.00;;;;5011045;28;20184;-46
2022/12/29 01:23:46;;;;;;;1.27;1.17;;;16.10;63.70;17.30;99521.00;;;;5010564;28;20620;-46
2022/12/29 01:26:13;;;;;;;0.97;0.97;;;16.10;63.90;17.30;99538.00;;;;4993815;28;20175;-46
2022/12/29 01:28:40;;;;;;;1.10;1.00;;;16.10;63.90;17.30;99540.00;;;;5010517;28;20262;-46
2022/12/29 01:31:06;;;;;;;1.30;1.20;;;16.10;64.00;17.30;99520.00;;;;5010243;28;20164;-47
2022/12/29 01:33:32;;;;;;;1.10;1.10;;;16.10;64.20;17.30;99535.00;;;;4977295;28;20196;-48
2022/12/29 01:36:09;;;;;;;1.07;1.00;;;16.10;64.10;17.30;99519.00;;;;5009579;28;20191;-48
2022/12/29 01:38:35;;;;;;;1.30;1.20;;;16.00;64.30;17.20;99511.00;;;;4994724;28;20167;-46
2022/12/29 01:41:01;;;;;;;2.10;1.17;;;16.10;64.30;17.20;99500.00;;;;5010351;28;20187;-46
2022/12/29 01:43:50;;;;;;;0.80;0.80;;;16.00;63.90;17.00;99441.00;;;;5009609;28;20198;-47
2022/12/29 01:46:36;;;;;;;1.03;1.03;;;16.10;64.10;16.90;99474.00;;;;5009562;28;20625;-46
2022/12/29 01:49:11;;;;;;;1.30;1.20;;;16.00;64.30;17.20;99523.00;;;;4993396;28;20160;-46
2022/12/29 01:51:43;;;;;;;1.30;1.20;;;16.00;64.30;17.20;99437.00;;;;5009319;28;20651;-45
2022/12/29 01:54:17;;;;;;;1.40;1.30;;;16.00;64.40;17.20;99517.00;;;;4993847;28;20192;-47
2022/12/29 01:56:42;;;;;;;0.87;0.87;;;16.00;64.40;17.20;99514.00;;;;5009294;28;20167;-45
2022/12/29 01:59:14;;;;;;;1.00;1.00;;;16.00;64.10;17.10;99498.00;;;;4993072;28;20183;-46
2022/12/29 02:01:40;;;;;;;0.90;0.90;;;16.00;64.30;17.10;99504.00;;;;5008896;28;20613;-47
2022/12/29 02:04:06;;;;;;;0.77;0.77;;;16.00;64.20;17.10;99501.00;;;;5008939;28;20336;-47
2022/12/29 02:06:37;;;;;;;1.03;1.03;;;16.00;64.40;17.10;99488.00;;;;5009406;28;20180;-47
2022/12/29 02:09:03;;;;;;;1.13;1.13;;;16.00;64.40;17.10;99500.00;;;;5009237;28;20541;-47
2022/12/29 02:11:29;;;;;;;0.87;0.87;;;16.00;64.20;17.10;99411.00;;;;5008878;28;20176;-47
2022/12/29 02:13:56;;;;;;;0.90;0.90;;;15.90;64.10;17.10;99497.00;;;;5008730;28;20199;-49
2022/12/29 02:16:33;;;;;;;0.80;0.80;;;16.00;64.30;17.10;99487.00;;;;5010022;28;20550;-45
2022/12/29 02:19:39;;;;;;;1.07;1.07;;;15.90;64.30;17.10;99489.00;;;;5010087;28;20215;-46
2022/12/29 02:22:27;;;;;;;1.00;1.00;;;16.00;64.40;17.10;99492.00;;;;5009977;28;20199;-45
2022/12/29 02:25:30;;;;;;;1.47;1.37;;;15.90;64.30;17.10;99484.00;;;;5009885;28;20593;-45
2022/12/29 02:28:47;;;;;;;1.20;1.10;;;15.90;64.40;17.10;99487.00;;;;5009061;28;20271;-47
2022/12/29 02:31:27;;;;;;;0.97;0.97;;;15.90;64.40;17.00;99473.00;;;;4978967;28;20206;-45
2022/12/29 02:34:22;;;;;;;0.97;0.97;;;15.90;64.30;17.00;99487.00;;;;5008678;28;20246;-46
2022/12/29 02:36:54;;;;;;;0.90;0.90;;;15.90;64.30;17.00;99398.00;;;;5009091;28;20171;-47
2022/12/29 02:39:53;;;;;;;1.20;0.80;;;15.80;64.00;17.00;99462.00;;;;5009794;28;20182;-46
2022/12/29 02:42:27;;;;;;;0.73;0.73;;;15.80;64.10;16.90;99475.00;;;;5008676;28;20206;-46
2022/12/29 02:45:05;;;;;;;1.00;1.00;;;15.80;64.10;16.90;99388.00;;;;5008213;28;20784;-46
2022/12/29 02:47:56;;;;;;;1.10;1.00;;;15.70;63.90;16.90;99463.00;;;;4992569;28;20163;-47
2022/12/29 02:50:42;;;;;;;1.30;1.20;;;15.70;63.90;16.90;99388.00;;;;5025773;28;20179;-48
2022/12/29 02:53:16;;;;;;;1.10;1.10;;;15.70;63.80;16.90;99376.00;;;;5006832;28;20590;-46
2022/12/29 02:55:49;;;;;;;1.07;0.93;;;15.70;63.70;16.90;99452.00;;;;4997942;28;20215;-47
2022/12/29 02:58:20;;;;;;;0.93;0.93;;;15.70;63.50;16.90;99335.00;;;;5010230;28;20167;-47
2022/12/29 03:01:09;;;;;;;0.80;0.80;;;15.70;63.50;16.90;99378.00;;;;4992976;28;20176;-47
2022/12/29 03:04:20;;;;;;;1.00;1.00;;;15.70;63.40;16.90;99454.00;;;;5008233;28;20680;-47
2022/12/29 03:07:14;;;;;;;1.23;1.07;;;15.70;63.40;16.90;99365.00;;;;5002078;28;20187;-47
2022/12/29 03:10:28;;;;;;;1.17;1.07;;;15.70;63.30;16.90;99339.00;;;;5008468;28;20160;-47
2022/12/29 03:16:24;;;;;;;1.50;1.00;;;15.70;63.10;16.80;99422.00;;;;5008537;28;20666;-46
2022/12/29 03:19:02;;;;;;;1.33;1.03;;;15.70;63.10;16.80;99421.00;;;;5008041;28;20214;-47
2022/12/29 03:24:29;;;;;;;1.40;1.30;;;15.70;63.10;16.80;99429.00;;;;5008160;28;20545;-47
2022/12/29 03:26:58;;;;;;;1.10;1.00;;;15.70;63.10;16.80;99334.00;;;;5007960;28;20633;-45
2022/12/29 03:29:24;;;;;;;1.40;1.33;;;15.70;63.00;16.80;99411.00;;;;5008236;28;20172;-45
2022/12/29 03:31:50;;;;;;;1.57;1.30;;;15.60;62.90;16.80;99423.00;;;;5007958;28;20170;-45
2022/12/29 03:34:16;;;;;;;1.30;1.20;;;15.60;63.10;16.80;99417.00;;;;5008095;28;20195;-48
2022/12/29 03:36:55;;;;;;;1.00;1.00;;;15.60;63.30;16.80;99419.00;;;;5007776;28;20206;-45
2022/12/29 03:39:22;;;;;;;1.07;0.97;;;15.50;63.30;16.80;99433.00;;;;4991238;28;20178;-46
2022/12/29 03:41:47;;;;;;;1.47;1.37;;;15.60;63.50;16.80;99418.00;;;;4992152;28;20171;-47
2022/12/29 03:44:13;;;;;;;0.67;0.67;;;15.60;63.30;16.80;99413.00;;;;4995192;28;20559;-46
2022/12/29 03:46:39;;;;;;;1.00;1.00;;;15.60;63.30;16.80;99429.00;;;;4995343;28;20692;-46
2022/12/29 03:49:05;;;;;;;1.53;1.10;;;15.50;63.30;16.80;99410.00;;;;5011099;28;20168;-47
2022/12/29 03:51:31;;;;;;;1.00;1.00;;;15.60;63.50;16.80;99412.00;;;;5011456;28;20206;-46
2022/12/29 03:53:56;;;;;;;1.10;1.10;;;15.50;63.50;16.70;99402.00;;;;5011728;28;20688;-47
2022/12/29 03:56:22;;;;;;;0.77;0.70;;;15.60;63.60;16.70;99323.00;;;;5011689;28;20238;-47
2022/12/29 03:58:48;;;;;;;0.70;0.70;;;15.50;63.60;16.70;99298.00;;;;4995273;28;20171;-47
2022/12/29 04:01:13;;;;;;;0.60;0.60;;;15.60;63.50;16.70;99390.00;;;;5011052;28;20179;-46
2022/12/29 04:03:39;;;;;;;1.10;1.10;;;15.60;63.50;16.70;99316.00;;;;5006400;28;20207;-46
2022/12/29 04:06:05;;;;;;;0.97;0.97;;;15.50;63.60;16.70;99399.00;;;;4994455;28;20636;-46
2022/12/29 04:08:31;;;;;;;1.57;1.20;;;15.50;63.60;16.70;99398.00;;;;4994788;28;20200;-46
2022/12/29 04:10:57;;;;;;;0.90;0.90;;;15.50;63.60;16.70;99385.00;;;;4994190;28;20560;-47
2022/12/29 04:13:22;;;;;;;1.20;1.00;;;15.50;63.80;16.70;99399.00;;;;5011320;28;20223;-46
2022/12/29 04:15:48;;;;;;;1.00;1.00;;;15.50;63.70;16.70;99372.00;;;;5010188;28;20199;-46
2022/12/29 04:18:14;;;;;;;0.83;0.83;;;15.50;63.90;16.70;99320.00;;;;4977900;28;20188;-47
2022/12/29 04:23:24;;;;;;;0.80;0.80;;;15.40;64.10;16.60;99305.00;;;;4996061;28;20237;-46
2022/12/29 04:25:50;;;;;;;0.90;0.90;;;15.40;64.00;16.60;99387.00;;;;4977972;28;20650;-47
2022/12/29 04:28:16;;;;;;;0.97;0.87;;;15.40;63.90;16.70;99307.00;;;;4995146;28;20172;-46
2022/12/29 04:30:45;;;;;;;4.80;1.37;;;15.50;63.90;16.70;99382.00;;;;4978000;28;20172;-46
2022/12/29 04:33:11;;;;;;;1.37;1.17;;;15.50;64.30;16.60;99389.00;;;;4990713;28;20268;-48
2022/12/29 04:35:37;;;;;;;1.77;1.20;;;15.60;63.90;16.70;99382.00;;;;5010619;28;20199;-45
2022/12/29 04:38:02;;;;;;;10.47;1.80;;;15.60;63.70;16.60;99410.00;;;;4993712;28;20226;-46
2022/12/29 04:40:28;;;;;;;4.00;1.37;;;15.60;63.80;16.60;99410.00;;;;5009791;28;20171;-47
2022/12/29 04:42:54;;;;;;;1.73;1.20;;;15.60;63.70;16.60;99397.00;;;;5009322;28;20188;-49
2022/12/29 04:45:19;;;;;;;1.03;0.90;;;15.50;63.70;16.60;99410.00;;;;5009947;28;20180;-47
2022/12/29 04:47:45;;;;;;;1.03;1.03;;;15.50;63.80;16.60;99389.00;;;;5012411;28;20184;-47
2022/12/29 04:50:11;;;;;;;2.53;1.10;;;15.50;63.80;16.60;99306.00;;;;5010344;28;20187;-47
2022/12/29 04:52:37;;;;;;;2.97;1.20;;;15.50;63.90;16.60;99402.00;;;;5010363;28;20350;-46
2022/12/29 04:55:04;;;;;;;1.73;1.03;;;15.60;63.80;16.60;99405.00;;;;4994561;28;20684;-47
2022/12/29 04:57:30;;;;;;;2.87;1.27;;;15.50;63.90;16.60;99427.00;;;;4994298;28;20178;-47
2022/12/29 04:59:56;;;;;;;1.67;1.47;;;15.50;64.00;16.60;99402.00;;;;5010158;28;20167;-46
2022/12/29 05:02:22;;;;;;;3.03;1.13;;;15.40;63.90;16.60;99415.00;;;;5009814;28;20884;-47
2022/12/29 05:04:47;;;;;;;0.93;0.93;;;15.50;64.00;16.60;99411.00;;;;4993616;28;20178;-46
2022/12/29 05:07:13;;;;;;;1.13;1.03;;;15.50;64.00;16.60;99322.00;;;;4994216;28;20298;-46
2022/12/29 05:09:39;;;;;;;1.83;1.43;;;15.40;63.90;16.60;99335.00;;;;5030687;28;20201;-46
2022/12/29 05:12:05;;;;;;;3.03;1.37;;;15.40;63.90;16.60;99401.00;;;;5012674;28;20579;-48
2022/12/29 05:14:31;;;;;;;1.20;1.10;;;15.40;63.90;16.60;99414.00;;;;5013644;28;20280;-47
2022/12/29 05:16:56;;;;;;;1.63;1.20;;;15.40;63.70;16.60;99400.00;;;;5029850;28;20174;-47
2022/12/29 05:19:22;;;;;;;0.93;0.90;;;15.40;63.70;16.60;99407.00;;;;5013063;28;20707;-46
2022/12/29 05:21:48;;;;;;;1.17;1.07;;;15.40;63.60;16.50;99399.00;;;;5031079;28;20214;-46
2022/12/29 05:24:15;;;;;;;1.00;1.00;;;15.40;63.80;16.50;99349.00;;;;5013700;28;20324;-46
2022/12/29 05:26:41;;;;;;;1.17;1.00;;;15.30;63.70;16.50;99335.00;;;;5014053;28;20171;-49
2022/12/29 05:29:06;;;;;;;2.37;1.47;;;15.20;63.70;16.50;99426.00;;;;5017851;28;20383;-47
2022/12/29 05:31:33;;;;;;;2.10;1.20;;;15.20;63.70;16.50;99443.00;;;;5036557;28;20663;-47
2022/12/29 05:33:59;;;;;;;1.20;0.90;;;15.20;63.70;16.20;99437.00;;;;5037748;28;20245;-45
2022/12/29 05:36:24;;;;;;;0.90;0.90;;;15.10;63.50;16.50;99423.00;;;;5029739;28;20171;-46
2022/12/29 05:38:50;;;;;;;2.50;1.47;;;15.20;63.30;16.40;99361.00;;;;5013595;28;20262;-46
2022/12/29 05:41:16;;;;;;;1.57;1.30;;;15.10;63.30;16.40;99431.00;;;;5015223;28;20171;-46
2022/12/29 05:43:42;;;;;;;1.17;1.07;;;15.10;62.80;16.40;99429.00;;;;5022118;28;20257;-46
2022/12/29 05:46:08;;;;;;;1.53;1.30;;;15.10;62.10;16.30;99435.00;;;;5019041;28;20167;-46
2022/12/29 05:48:33;;;;;;;0.90;0.90;;;15.10;61.60;16.30;99435.00;;;;5012668;28;20175;-48
2022/12/29 05:50:59;;;;;;;1.10;1.00;;;15.20;61.50;16.30;99454.00;;;;5028480;28;20167;-46
2022/12/29 05:53:25;;;;;;;1.00;0.90;;;15.10;61.40;16.30;99449.00;;;;5012588;28;20207;-47
2022/12/29 05:55:50;;;;;;;2.57;1.33;;;15.10;61.10;16.20;99441.00;;;;5012253;28;20654;-51
2022/12/29 05:58:16;;;;;;;1.60;1.13;;;15.10;60.90;16.20;99442.00;;;;5028951;28;20178;-46
2022/12/29 06:00:42;;;;;;;2.13;1.17;;;15.10;60.50;16.20;99442.00;;;;5011964;28;20640;-46
2022/12/29 06:03:08;;;;;;;1.00;0.90;;;15.00;61.00;16.20;99460.00;;;;5029082;28;20197;-47
2022/12/29 06:05:34;;;;;;;1.43;1.17;;;15.00;61.30;16.20;99348.00;;;;5028537;28;20761;-46
2022/12/29 06:08:00;;;;;;;4.03;1.23;;;15.00;61.30;16.30;99372.00;;;;5028964;28;20171;-47
2022/12/29 06:10:25;;;;;;;2.00;1.10;;;15.00;61.30;16.30;99369.00;;;;5028999;28;20167;-46
2022/12/29 06:12:51;;;;;;;1.30;1.13;;;15.10;61.40;16.30;99357.00;;;;5028153;28;20269;-47
2022/12/29 06:15:17;;;;;;;1.13;1.07;;;15.20;61.50;16.30;99440.00;;;;5028880;28;21021;-46
2022/12/29 06:17:43;;;;;;;2.40;1.50;;;15.10;61.40;16.30;99434.00;;;;5010479;28;20214;-46
2022/12/29 06:20:09;;;;;;;4.43;1.43;;;15.10;61.40;16.40;99438.00;;;;5005591;28;20163;-49
2022/12/29 06:22:35;;;;;;;1.67;1.17;;;15.20;61.60;16.40;99357.00;;;;5011769;28;20541;-45
2022/12/29 06:25:01;;;;;;;1.87;1.20;;;15.20;61.50;16.40;99445.00;;;;5028993;28;20175;-48
2022/12/29 06:27:27;;;;;;;1.97;1.10;;;15.30;61.70;16.40;99363.00;;;;5010313;28;20167;-46
2022/12/29 06:29:53;;;;;;;1.30;1.07;;;15.20;61.50;16.40;99436.00;;;;5028236;28;20186;-46
2022/12/29 06:32:19;;;;;;;2.10;1.20;;;15.30;61.60;16.40;99449.00;;;;5010624;28;20222;-47
2022/12/29 06:34:44;;;;;;;1.10;1.00;;;15.30;61.70;16.40;99466.00;;;;5028259;28;20195;-48
2022/12/29 06:37:10;;;;;;;1.10;1.00;;;15.30;61.70;16.40;99392.00;;;;5029566;28;20171;-47
2022/12/29 06:39:36;;;;;;;1.67;1.23;;;15.30;61.70;16.40;99391.00;;;;5028331;28;20644;-46
2022/12/29 06:42:02;;;;;;;1.20;1.13;;;15.30;61.70;16.40;99468.00;;;;5010742;28;20293;-48
2022/12/29 06:44:28;;;;;;;1.10;1.10;;;15.30;61.70;16.40;99476.00;;;;4995649;28;20171;-47
2022/12/29 06:46:54;;;;;;;1.60;1.20;;;15.30;61.70;16.40;99470.00;;;;5011485;28;20695;-47
2022/12/29 06:49:19;;;;;;;1.00;1.00;;;15.30;61.80;16.40;99384.00;;;;5028333;28;20601;-46
2022/12/29 06:51:45;;;;;;;1.83;1.30;;;15.30;61.80;16.40;99467.00;;;;5010759;28;20186;-46
2022/12/29 06:54:11;;;;;;;1.10;1.00;;;15.30;61.80;16.40;99472.00;;;;5027937;28;20250;-47
2022/12/29 06:56:37;;;;;;;1.10;1.00;;;15.30;61.90;16.10;99481.00;;;;5013433;28;20224;-47
2022/12/29 06:59:03;;;;;;;1.17;0.97;;;15.30;61.90;16.40;99406.00;;;;5029426;28;20212;-47
2022/12/29 07:01:28;;;;;;;1.10;0.77;;;15.30;61.90;16.40;99404.00;;;;5010619;28;20233;-46
2022/12/29 07:03:54;;;;;;;1.20;1.10;;;15.30;61.90;16.40;99478.00;;;;5028069;28;20187;-45
2022/12/29 07:06:20;;;;;;;0.87;0.80;;;15.30;62.00;16.40;99408.00;;;;5028824;28;20175;-47
2022/12/29 07:08:46;;;;;;;1.07;1.07;;;15.30;62.00;16.40;99401.00;;;;5027955;28;20179;-46
2022/12/29 07:11:12;;;;;;;0.97;0.87;;;15.30;61.90;16.40;99416.00;;;;5027241;28;20167;-47
2022/12/29 07:13:37;;;;;;;1.30;1.20;;;15.30;61.90;16.40;99487.00;;;;5027346;28;20193;-47
2022/12/29 07:16:08;;;;;;;0.80;0.80;;;15.30;62.80;16.40;99493.00;;;;5011402;28;20201;-46
2022/12/29 07:18:33;;;;;;;1.37;1.13;;;15.30;62.00;16.40;99413.00;;;;5015324;28;20230;-49
2022/12/29 07:20:59;;;;;;;1.00;0.90;;;15.30;61.90;16.40;99443.00;;;;5031657;28;20598;-47
2022/12/29 07:23:25;;;;;;;1.00;1.00;;;15.30;62.00;16.40;99489.00;;;;5031551;28;20667;-45
2022/12/29 07:25:59;;;;;;;1.63;0.93;;;15.30;62.00;16.40;99502.00;;;;5015351;28;20552;-47
2022/12/29 07:28:24;;;;;;;1.23;1.00;;;15.30;62.00;16.40;99504.00;;;;5032107;28;20175;-48
2022/12/29 07:30:50;;;;;;;1.30;1.00;;;15.30;62.00;16.40;99511.00;;;;5021583;28;20238;-46
2022/12/29 07:33:16;;;;;;;1.80;1.33;;;15.30;61.90;16.40;99434.00;;;;5001369;28;20550;-48
2022/12/29 07:35:42;;;;;;;1.00;0.90;;;15.30;62.10;16.40;99440.00;;;;4986637;28;20210;-46
2022/12/29 07:38:07;;;;;;;1.17;1.17;;;15.40;62.40;16.40;99438.00;;;;5003622;28;20215;-46
2022/12/29 07:40:33;;;;;;;1.63;1.00;;;15.40;62.00;16.50;99528.00;;;;4994774;28;20262;-46
2022/12/29 07:42:59;;;;;;;3.80;1.13;;;15.30;61.90;16.20;99512.00;;;;4974492;28;20327;-47
2022/12/29 07:45:25;;;;;;;2.13;0.80;;;15.40;62.10;16.50;99530.00;;;;4993497;28;20219;-47
2022/12/29 07:47:51;;;;;;;1.27;1.17;;;15.40;62.40;16.50;99538.00;;;;4958087;28;20537;-47
2022/12/29 07:50:17;;;;;;;1.97;0.90;;;15.50;62.50;16.60;99556.00;;;;5023660;28;20552;-48
2022/12/29 07:52:42;;;;;;;4.63;1.30;;;15.60;62.60;16.60;99543.00;;;;5007147;28;20208;-48
2022/12/29 07:55:08;;;;;;;1.30;1.20;;;15.70;62.70;16.70;99568.00;;;;5011418;28;20194;-47
2022/12/29 07:57:34;;;;;;;1.70;1.07;;;15.80;62.70;16.70;99567.00;;;;5012847;28;20168;-47
2022/12/29 08:00:00;;;;;;;3.00;1.13;;;15.90;62.50;16.50;99486.00;;;;5011322;28;20179;-47
2022/12/29 08:02:26;;;;;;;1.10;1.00;;;16.00;62.40;16.90;99570.00;;;;5010003;28;20196;-47
2022/12/29 08:04:51;;;;;;;1.70;1.30;;;16.20;62.20;16.90;99500.00;;;;5011145;28;20194;-47
2022/12/29 08:07:17;;;;;;;1.47;0.90;;;16.40;62.10;17.00;99570.00;;;;4993249;28;20267;-46
2022/12/29 08:09:43;;;;;;;1.27;1.17;;;16.50;61.80;17.10;99476.00;;;;5010991;28;20179;-47
2022/12/29 08:12:10;;;;;;;1.87;1.20;;;16.70;61.70;17.20;99473.00;;;;5009824;28;20819;-48
2022/12/29 08:14:36;;;;;;;1.70;1.00;;;16.80;61.50;17.30;99566.00;;;;5010826;28;20265;-45
2022/12/29 08:17:01;;;;;;;3.97;1.27;;;16.90;61.50;17.40;99566.00;;;;5011356;28;20258;-46
2022/12/29 08:19:27;;;;;;;2.93;1.17;;;17.00;61.40;17.50;99571.00;;;;5011183;28;20183;-47
2022/12/29 08:21:53;;;;;;;3.53;1.30;;;17.30;61.20;17.70;99586.00;;;;5012625;28;20164;-48
2022/12/29 08:24:19;;;;;;;1.97;1.23;;;17.40;61.10;17.80;99575.00;;;;5011189;28;20203;-46
2022/12/29 08:26:45;;;;;;;1.60;1.20;;;17.60;61.60;17.90;99586.00;;;;4978296;28;20209;-47
2022/12/29 08:29:10;;;;;;;4.30;1.40;;;17.70;61.90;18.10;99571.00;;;;5021033;28;20235;-46
2022/12/29 08:31:36;;;;;;;3.40;1.40;;;17.90;62.20;18.20;99505.00;;;;5027389;28;20204;-47
2022/12/29 08:34:03;;;;;;;3.37;1.50;;;18.00;62.10;18.30;99565.00;;;;5013014;28;20689;-47
2022/12/29 08:36:29;;;;;;;4.10;1.47;;;18.10;62.10;18.40;99493.00;;;;5029115;28;20691;-48
2022/12/29 08:38:55;;;;;;;2.17;1.40;;;18.20;62.00;18.50;99583.00;;;;5030058;28;20161;-48
2022/12/29 08:41:21;;;;;;;4.10;1.50;;;18.30;62.10;18.60;99511.00;;;;5015615;28;20236;-45
2022/12/29 08:43:47;;;;;;;5.37;1.40;;;18.30;62.10;18.70;99508.00;;;;4999745;28;20947;-48
2022/12/29 08:46:13;;;;;;;4.00;1.60;;;18.40;62.40;18.80;99582.00;;;;5010020;28;20189;-48
2022/12/29 08:48:39;;;;;;;4.90;1.57;;;18.50;62.00;18.90;99582.00;;;;4994502;28;20186;-47
2022/12/29 08:51:05;;;;;;;6.20;1.87;;;18.60;61.70;18.90;99573.00;;;;5010881;28;20224;-47
2022/12/29 08:53:31;;;;;;;3.03;1.80;;;18.70;62.10;19.00;99580.00;;;;5010380;28;20248;-47
2022/12/29 08:55:58;;;;;;;4.80;1.80;;;18.90;62.80;19.10;99594.00;;;;5010200;28;20725;-46
2022/12/29 08:58:25;;;;;;;10.40;2.13;;;18.90;62.70;19.20;99612.00;;;;5010939;28;20181;-48
2022/12/29 09:00:53;;;;;;;8.47;1.90;;;18.90;62.80;19.20;99598.00;;;;5010323;28;20172;-46
2022/12/29 09:03:19;;;;;;;15.37;2.47;;;18.90;63.90;19.30;99592.00;;;;5010152;28;20249;-46
2022/12/29 09:05:51;;;;;;;7.70;2.00;;;18.90;63.70;19.30;99596.00;;;;5010620;28;20167;-47
2022/12/29 09:08:17;;;;;;;7.23;1.80;;;18.90;64.10;19.40;99608.00;;;;5010204;28;20179;-47
2022/12/29 09:10:44;;;;;;;7.80;2.13;;;19.00;63.60;19.40;99604.00;;;;5010796;28;20233;-47
2022/12/29 09:13:10;;;;;;;7.30;1.97;;;18.90;63.30;19.40;99610.00;;;;4993794;28;20275;-47
2022/12/29 09:15:36;;;;;;;6.73;2.17;;;19.00;63.30;19.50;99614.00;;;;5010631;28;20227;-46
2022/12/29 09:18:02;;;;;;;4.63;1.80;;;19.00;63.20;19.50;99627.00;;;;5010722;28;20603;-47
2022/12/29 09:20:28;;;;;;;4.97;1.87;;;19.00;62.90;19.50;99635.00;;;;5010780;28;20163;-46
2022/12/29 09:22:53;;;;;;;7.30;2.13;;;19.00;62.80;19.50;99629.00;;;;4993516;28;20561;-46
2022/12/29 09:25:19;;;;;;;6.23;1.90;;;19.00;62.90;19.50;99640.00;;;;5010621;28;20171;-47
2022/12/29 09:27:47;;;;;;;6.17;2.00;;;18.90;62.70;19.50;99590.00;;;;4994046;28;20167;-47
2022/12/29 09:30:14;;;;;;;4.90;1.43;;;18.90;62.80;19.50;99575.00;;;;5010209;28;20167;-47
2022/12/29 09:32:40;;;;;;;8.43;1.90;;;18.90;62.80;19.50;99652.00;;;;5009967;28;20199;-46
2022/12/29 09:35:06;;;;;;;4.87;1.80;;;18.90;62.90;19.50;99656.00;;;;5010540;28;20187;-47
2022/12/29 09:37:32;;;;;;;3.83;1.97;;;18.80;62.80;19.50;99654.00;;;;4982044;28;20168;-47
2022/12/29 09:39:57;;;;;;;3.53;1.63;;;18.80;62.90;19.50;99655.00;;;;4995787;28;20577;-46
2022/12/29 09:42:55;;;;;;;2.53;1.53;;;18.80;63.10;19.50;99653.00;;;;5010961;28;20192;-47
2022/12/29 09:45:41;;;;;;;5.63;1.80;;;18.70;63.10;19.40;99573.00;;;;5015991;28;20156;-47
2022/12/29 09:48:22;;;;;;;5.10;1.70;;;18.70;63.00;19.40;99585.00;;;;5002400;28;20175;-47
2022/12/29 09:50:53;;;;;;;6.80;2.07;;;18.60;63.10;19.40;99588.00;;;;5019254;28;20517;-46
2022/12/29 09:53:27;;;;;;;3.17;1.70;;;18.60;63.10;19.40;99679.00;;;;5011073;28;20196;-46
2022/12/29 09:55:55;;;;;;;3.00;1.60;;;18.60;63.30;19.30;99674.00;;;;4994205;28;20274;-46
2022/12/29 09:58:25;;;;;;;1.50;1.33;;;18.60;63.30;19.30;99576.00;;;;5009873;28;20206;-46
2022/12/29 10:01:07;;;;;;;4.10;1.63;;;18.60;63.30;19.30;99677.00;;;;5010164;28;20237;-46
2022/12/29 10:04:02;;;;;;;3.40;1.70;;;18.50;63.30;19.30;99670.00;;;;5009788;28;20312;-47
2022/12/29 10:07:01;;;;;;;3.87;1.30;;;18.50;63.20;19.30;99608.00;;;;5008509;28;20192;-46
2022/12/29 10:09:46;;;;;;;4.20;1.80;;;18.50;63.20;19.20;99673.00;;;;4993288;28;20274;-46
2022/12/29 10:12:58;;;;;;;2.37;1.53;;;18.40;63.30;19.20;99667.00;;;;4992938;28;20195;-47
2022/12/29 10:15:50;;;;;;;2.97;1.50;;;18.40;63.30;19.20;99606.00;;;;5009894;28;20214;-47
2022/12/29 10:19:20;;;;;;;2.87;1.50;;;18.40;63.40;19.20;99657.00;;;;5009620;28;20202;-47
2022/12/29 10:22:08;;;;;;;3.60;1.70;;;18.40;63.30;19.10;99591.00;;;;5009543;28;20163;-47
2022/12/29 10:24:34;;;;;;;2.43;1.53;;;18.30;63.20;19.10;99665.00;;;;5010870;28;20155;-47
2022/12/29 10:27:00;;;;;;;3.47;1.50;;;18.30;63.30;19.10;99671.00;;;;4993322;28;20266;-47
2022/12/29 10:29:36;;;;;;;1.50;1.37;;;18.30;63.30;19.10;99670.00;;;;4993291;28;20266;-48
2022/12/29 10:32:13;;;;;;;2.23;1.40;;;18.30;63.30;18.90;99655.00;;;;4992909;28;20191;-47
2022/12/29 10:34:45;;;;;;;3.33;1.50;;;18.20;63.30;19.10;99670.00;;;;4993112;28;20534;-47
2022/12/29 10:37:34;;;;;;;2.07;1.57;;;18.20;63.30;19.00;99682.00;;;;5009356;28;20186;-48
2022/12/29 10:40:00;;;;;;;2.70;1.40;;;18.20;63.30;19.00;99686.00;;;;5009737;28;20160;-48
2022/12/29 10:42:27;;;;;;;4.17;1.67;;;18.20;63.20;19.00;99693.00;;;;5009243;28;20188;-47
2022/12/29 10:44:54;;;;;;;1.90;1.30;;;18.20;63.30;19.00;99681.00;;;;5009777;28;20210;-47
2022/12/29 10:47:28;;;;;;;2.27;1.47;;;18.10;63.30;19.00;99696.00;;;;5009497;28;20172;-48
2022/12/29 10:49:53;;;;;;;2.80;1.30;;;18.10;63.30;18.90;99614.00;;;;4992568;28;20168;-47
2022/12/29 10:52:19;;;;;;;2.27;1.30;;;18.10;63.30;18.90;99703.00;;;;5008841;28;20666;-47
2022/12/29 10:54:58;;;;;;;1.93;1.33;;;18.10;63.50;18.90;99699.00;;;;5008940;28;20631;-47
2022/12/29 10:57:35;;;;;;;2.03;1.40;;;18.10;63.30;18.90;99695.00;;;;5009419;28;20163;-47
2022/12/29 11:00:01;;;;;;;1.70;1.50;;;18.00;63.50;18.90;99695.00;;;;4992550;28;20171;-51
2022/12/29 11:02:49;;;;;;;2.73;1.60;;;18.00;63.30;18.90;99698.00;;;;4992398;28;20563;-47
2022/12/29 11:05:34;;;;;;;2.80;1.37;;;18.00;63.40;18.90;99661.00;;;;5009063;28;20237;-47
2022/12/29 11:08:04;;;;;;;2.17;1.57;;;18.00;63.40;18.80;99714.00;;;;5009050;28;20195;-47
2022/12/29 11:10:33;;;;;;;1.93;1.30;;;17.90;63.30;18.80;99715.00;;;;4992917;28;20194;-48
2022/12/29 11:13:16;;;;;;;1.93;1.17;;;17.90;63.30;18.80;99709.00;;;;5009864;28;20202;-46
2022/12/29 11:15:49;;;;;;;3.10;1.40;;;17.90;63.30;18.80;99717.00;;;;4992694;28;20255;-45
2022/12/29 11:18:25;;;;;;;1.67;1.30;;;17.90;63.30;18.80;99711.00;;;;5009773;28;20625;-47
2022/12/29 11:21:00;;;;;;;2.07;1.50;;;17.90;63.30;18.80;99703.00;;;;5024632;28;20610;-47
2022/12/29 11:23:37;;;;;;;1.30;1.20;;;17.80;63.10;18.80;99713.00;;;;5017677;28;20582;-48
2022/12/29 11:26:22;;;;;;;3.93;1.30;;;17.80;63.20;18.80;99715.00;;;;5008697;28;20171;-47
2022/12/29 11:29:17;;;;;;;1.17;0.90;;;17.80;63.30;18.70;99634.00;;;;5009124;28;20623;-48
2022/12/29 11:31:47;;;;;;;1.43;1.27;;;17.80;63.20;18.70;99713.00;;;;5009503;28;20266;-47
2022/12/29 11:34:33;;;;;;;1.20;1.10;;;17.80;63.20;18.70;99721.00;;;;5008386;28;20680;-47
2022/12/29 11:37:13;;;;;;;1.10;0.90;;;17.70;63.10;18.70;99731.00;;;;5008860;28;20176;-46
2022/12/29 11:39:42;;;;;;;4.30;1.53;;;17.80;63.30;18.70;99730.00;;;;5008855;28;20161;-46
2022/12/29 11:42:17;;;;;;;1.87;1.30;;;17.70;63.10;18.70;99658.00;;;;5009468;28;20183;-45
2022/12/29 11:44:45;;;;;;;2.13;1.47;;;17.70;63.10;18.60;99734.00;;;;5008332;28;20182;-47
2022/12/29 11:47:28;;;;;;;2.57;1.40;;;17.70;63.10;18.70;99738.00;;;;5006827;28;20217;-47
2022/12/29 11:49:58;;;;;;;2.53;1.60;;;17.70;63.10;18.60;99740.00;;;;4991717;28;20668;-47